Avo Nico — CUDR5 — position and weather

sailwx.info

Track history (hours):
 
Tides and Currents Weather Stations Pressure Air Temp Water Temp Dewpoint Dewpoint Depression Visibility Wind Speed Wind Dir Waves Ship Positions

Avo Nico

Last reported at 2017-Sep-14 17:10 UTC. Time now 2017-Sep-22 22:26 UTC.
Position N 39°18' W 009°25'.
Warning: this ship's position is 8 days out of date.

MMSI: 263423380.

Date/timePositionNaut miles runAvg speedWind from/ knotsBaromVisibWave heightAir tempDewpointWater temp
2017-Sep-14 17:10N 39°18' W 009°25'1 7.2
2017-Sep-14 16:59N 39°17' W 009°26'3 7.2
2017-Sep-14 16:30N 39°14' W 009°28'3 6.9
2017-Sep-14 16:01N 39°12' W 009°30'3 6.9
2017-Sep-14 15:30N 39°09' W 009°33'4 7.1
2017-Sep-14 15:01N 39°06' W 009°35'4 7.1
2017-Sep-14 14:30N 39°03' W 009°38'4 7.5
2017-Sep-14 14:00N 38°60' W 009°41'  
2017-Sep-12 07:38N 38°36' W 009°40'0 2.6
2017-Sep-12 07:31N 38°36' W 009°40'1 2.6
2017-Sep-12 07:00N 38°34' W 009°40'2 3.0
2017-Sep-12 06:30N 38°33' W 009°39'1 2.6
2017-Sep-12 06:00N 38°32' W 009°38'3 6.9
2017-Sep-12 05:30N 38°31' W 009°34'3 6.5
2017-Sep-12 05:01N 38°30' W 009°30'3 6.9
2017-Sep-12 04:30N 38°28' W 009°26'3 7.0
2017-Sep-12 04:00N 38°27' W 009°22'4 7.2
2017-Sep-12 03:31N 38°25' W 009°17'4 7.2
2017-Sep-12 03:00N 38°24' W 009°13'4 7.1
2017-Sep-12 02:28N 38°25' W 009°08'2 3.8
2017-Sep-12 02:00N 38°26' W 009°07'0 0.0
2017-Sep-12 01:31N 38°26' W 009°07'0 0.0
2017-Sep-12 01:00N 38°26' W 009°07'0 0.0
2017-Sep-12 00:30N 38°26' W 009°07'0 0.0
2017-Sep-12 00:00N 38°26' W 009°07'0 0.0
2017-Sep-11 23:31N 38°26' W 009°07'0 0.0
2017-Sep-11 22:59N 38°26' W 009°07'0 0.0
2017-Sep-11 22:30N 38°26' W 009°07'0 0.0
2017-Sep-11 22:00N 38°26' W 009°07'0 0.0
2017-Sep-11 21:30N 38°26' W 009°07'1 1.0
2017-Sep-11 21:01N 38°26' W 009°06'4 7.2
2017-Sep-11 20:30N 38°22' W 009°07'4 7.3
2017-Sep-11 20:00N 38°19' W 009°07'3 7.1
2017-Sep-11 19:31N 38°15' W 009°08'3 7.0
2017-Sep-11 19:01N 38°12' W 009°08'3 6.8
2017-Sep-11 18:31N 38°09' W 009°09'23 0.6
2017-Sep-10 05:16N 37°46' W 009°11'2 8.0
2017-Sep-10 05:00N 37°48' W 009°11'4 8.0
2017-Sep-10 04:30N 37°52' W 009°11'4 7.8
2017-Sep-10 04:00N 37°56' W 009°10'4 7.7
2017-Sep-10 03:30N 37°60' W 009°10'4 7.8
2017-Sep-10 03:00N 38°04' W 009°09'4 7.7
2017-Sep-10 02:30N 38°07' W 009°09'4 7.5
2017-Sep-10 02:00N 38°11' W 009°08'4 7.5
2017-Sep-10 01:30N 38°15' W 009°08'4 7.4
2017-Sep-10 01:00N 38°19' W 009°07'4 7.5
2017-Sep-10 00:30N 38°22' W 009°07'4 7.5
2017-Sep-10 00:00N 38°26' W 009°06'0 0.9
2017-Sep-09 23:30N 38°26' W 009°07'0 0.0
2017-Sep-09 23:00N 38°26' W 009°07'0 0.0
2017-Sep-09 22:30N 38°26' W 009°07'0 0.0
2017-Sep-09 22:00N 38°26' W 009°07'1 1.1
2017-Sep-09 21:30N 38°26' W 009°06'4 7.6
2017-Sep-09 21:00N 38°22' W 009°07'3 7.0
2017-Sep-09 20:30N 38°19' W 009°08'3 6.7
2017-Sep-09 20:00N 38°15' W 009°08'3 6.8
2017-Sep-09 19:30N 38°12' W 009°08'8 0.6
2017-Sep-09 06:30N 38°04' W 009°08'0 0.9
2017-Sep-09 06:00N 38°04' W 009°08'3 6.3
2017-Sep-09 05:30N 38°02' W 009°05'3 6.4
2017-Sep-09 05:00N 38°00' W 009°01'3 6.6
2017-Sep-09 04:30N 37°59' W 008°58'3 6.6
2017-Sep-09 04:00N 37°57' W 008°55'2 3.8
2017-Sep-09 03:30N 37°57' W 008°52'0 0.0
2017-Sep-09 03:00N 37°57' W 008°52'0 0.0
2017-Sep-09 02:30N 37°57' W 008°52'0 0.0
2017-Sep-09 02:00N 37°57' W 008°52'0 0.0
2017-Sep-09 01:30N 37°57' W 008°52'0 0.0
2017-Sep-09 01:00N 37°57' W 008°52'0 0.0
2017-Sep-09 00:30N 37°57' W 008°52'0 0.0
2017-Sep-09 00:00N 37°57' W 008°52'0 0.0
2017-Sep-08 23:30N 37°57' W 008°52'0 0.0
2017-Sep-08 23:00N 37°57' W 008°52'0 0.0
2017-Sep-08 22:30N 37°57' W 008°52'0 0.0
2017-Sep-08 22:00N 37°57' W 008°52'0 0.0
2017-Sep-08 21:30N 37°57' W 008°52'0 0.0
2017-Sep-08 21:00N 37°57' W 008°52'0 0.0
2017-Sep-08 20:30N 37°57' W 008°52'3 6.2
2017-Sep-08 20:00N 37°55' W 008°55'4 7.4
2017-Sep-08 19:30N 37°53' W 008°59'4 6.9
2017-Sep-08 19:00N 37°51' W 009°03'3 6.6
2017-Sep-08 18:30N 37°49' W 009°06'14 2.7
2017-Sep-08 13:26N 37°37' W 009°14'1 2.1
2017-Sep-08 13:00N 37°38' W 009°13'1 2.7
2017-Sep-08 12:30N 37°39' W 009°14'1 2.7
2017-Sep-08 12:00N 37°40' W 009°14'2 4.0
2017-Sep-08 11:28N 37°42' W 009°14'0 0.5
2017-Sep-08 11:00N 37°42' W 009°15'0 0.3
2017-Sep-08 10:30N 37°43' W 009°15'1 2.7
2017-Sep-08 10:00N 37°44' W 009°15'42 5.1
2017-Sep-08 01:50N 38°25' W 009°07'1 3.9
2017-Sep-08 01:30N 38°26' W 009°07'0 0.0
2017-Sep-08 01:00N 38°26' W 009°07'0 0.0
2017-Sep-08 00:30N 38°26' W 009°07'0 0.0
2017-Sep-08 00:00N 38°26' W 009°07'0 0.0
2017-Sep-07 23:30N 38°26' W 009°07'0 0.0
2017-Sep-07 23:00N 38°26' W 009°07'0 0.0
2017-Sep-07 22:30N 38°26' W 009°07'0 0.0
2017-Sep-07 22:00N 38°26' W 009°07'0 0.0
2017-Sep-07 21:30N 38°26' W 009°07'0 0.0
2017-Sep-07 21:00N 38°26' W 009°07'0 0.0
2017-Sep-07 20:30N 38°26' W 009°07'0 0.0
2017-Sep-07 20:00N 38°26' W 009°07'0 0.1
2017-Sep-07 19:30N 38°26' W 009°07'0 0.0
2017-Sep-07 19:00N 38°26' W 009°07'3 6.1
2017-Sep-07 18:30N 38°23' W 009°07'4 7.6
2017-Sep-07 18:00N 38°20' W 009°07'4 7.4
2017-Sep-07 17:30N 38°16' W 009°07'4 7.5
2017-Sep-07 17:00N 38°12' W 009°08'4 7.5
2017-Sep-07 16:30N 38°08' W 009°08'4 7.4
2017-Sep-07 16:00N 38°05' W 009°09'4 7.3
2017-Sep-07 15:30N 38°02' W 009°11'24 0.6
2017-Sep-06 02:18N 38°25' W 009°07'1 4.8
2017-Sep-06 02:00N 38°26' W 009°07'0 0.0
2017-Sep-06 01:30N 38°26' W 009°07'0 0.0
2017-Sep-06 01:00N 38°26' W 009°07'0 0.0
2017-Sep-06 00:30N 38°26' W 009°07'0 0.0
2017-Sep-06 00:00N 38°26' W 009°07'0 0.0
2017-Sep-05 23:30N 38°26' W 009°07'0 0.0
2017-Sep-05 23:00N 38°26' W 009°07'0 0.0
2017-Sep-05 22:29N 38°26' W 009°07'0 0.0
2017-Sep-05 21:59N 38°26' W 009°07'0 0.0
2017-Sep-05 21:30N 38°26' W 009°07'0 0.0
2017-Sep-05 21:00N 38°26' W 009°07'0 0.0
2017-Sep-05 20:30N 38°26' W 009°07'0 0.0
2017-Sep-05 20:00N 38°26' W 009°07'0 0.2
2017-Sep-05 19:30N 38°26' W 009°07'0 0.0
2017-Sep-05 19:00N 38°26' W 009°07'0 0.0
2017-Sep-05 18:30N 38°26' W 009°07'1 1.2
2017-Sep-05 18:00N 38°26' W 009°06'4 7.5
2017-Sep-05 17:30N 38°22' W 009°07'4 7.2
2017-Sep-05 17:00N 38°19' W 009°08'4 7.2
2017-Sep-05 16:30N 38°15' W 009°08'4 7.3
2017-Sep-05 16:00N 38°11' W 009°08'4 7.2
2017-Sep-05 15:30N 38°08' W 009°09'4 7.0
2017-Sep-05 15:00N 38°04' W 009°10'4 7.4
2017-Sep-05 14:30N 38°01' W 009°11'4 7.5
2017-Sep-05 14:00N 37°57' W 009°13'24 1.3
2017-Sep-04 20:15N 37°34' W 009°19'1 2.7
2017-Sep-04 19:59N 37°34' W 009°19'2 2.6
2017-Sep-04 19:15N 37°32' W 009°19'1 2.6
2017-Sep-04 19:00N 37°31' W 009°18'  
Track history (hours):
 
Tides and Currents Weather Stations Pressure Air Temp Water Temp Dewpoint Dewpoint Depression Visibility Wind Speed Wind Dir Waves Ship Positions

Avo Nico

Last reported at 2017-Sep-14 17:10 UTC. Time now 2017-Sep-22 22:26 UTC.
Position N 39°18' W 009°25'.
Warning: this ship's position is 8 days out of date.

MMSI: 263423380.

Date/timePositionNaut miles runAvg speedWind from/ knotsBaromVisibWave heightAir tempDewpointWater temp
2017-Sep-14 17:10N 39°18' W 009°25'1 7.2
2017-Sep-14 16:59N 39°17' W 009°26'3 7.2
2017-Sep-14 16:30N 39°14' W 009°28'3 6.9
2017-Sep-14 16:01N 39°12' W 009°30'3 6.9
2017-Sep-14 15:30N 39°09' W 009°33'4 7.1
2017-Sep-14 15:01N 39°06' W 009°35'4 7.1
2017-Sep-14 14:30N 39°03' W 009°38'4 7.5
2017-Sep-14 14:00N 38°60' W 009°41'  
2017-Sep-12 07:38N 38°36' W 009°40'0 2.6
2017-Sep-12 07:31N 38°36' W 009°40'1 2.6
2017-Sep-12 07:00N 38°34' W 009°40'2 3.0
2017-Sep-12 06:30N 38°33' W 009°39'1 2.6
2017-Sep-12 06:00N 38°32' W 009°38'3 6.9
2017-Sep-12 05:30N 38°31' W 009°34'3 6.5
2017-Sep-12 05:01N 38°30' W 009°30'3 6.9
2017-Sep-12 04:30N 38°28' W 009°26'3 7.0
2017-Sep-12 04:00N 38°27' W 009°22'4 7.2
2017-Sep-12 03:31N 38°25' W 009°17'4 7.2
2017-Sep-12 03:00N 38°24' W 009°13'4 7.1
2017-Sep-12 02:28N 38°25' W 009°08'2 3.8
2017-Sep-12 02:00N 38°26' W 009°07'0 0.0
2017-Sep-12 01:31N 38°26' W 009°07'0 0.0
2017-Sep-12 01:00N 38°26' W 009°07'0 0.0
2017-Sep-12 00:30N 38°26' W 009°07'0 0.0
2017-Sep-12 00:00N 38°26' W 009°07'0 0.0
2017-Sep-11 23:31N 38°26' W 009°07'0 0.0
2017-Sep-11 22:59N 38°26' W 009°07'0 0.0
2017-Sep-11 22:30N 38°26' W 009°07'0 0.0
2017-Sep-11 22:00N 38°26' W 009°07'0 0.0
2017-Sep-11 21:30N 38°26' W 009°07'1 1.0
2017-Sep-11 21:01N 38°26' W 009°06'4 7.2
2017-Sep-11 20:30N 38°22' W 009°07'4 7.3
2017-Sep-11 20:00N 38°19' W 009°07'3 7.1
2017-Sep-11 19:31N 38°15' W 009°08'3 7.0
2017-Sep-11 19:01N 38°12' W 009°08'3 6.8
2017-Sep-11 18:31N 38°09' W 009°09'23 0.6
2017-Sep-10 05:16N 37°46' W 009°11'2 8.0
2017-Sep-10 05:00N 37°48' W 009°11'4 8.0
2017-Sep-10 04:30N 37°52' W 009°11'4 7.8
2017-Sep-10 04:00N 37°56' W 009°10'4 7.7
2017-Sep-10 03:30N 37°60' W 009°10'4 7.8
2017-Sep-10 03:00N 38°04' W 009°09'4 7.7
2017-Sep-10 02:30N 38°07' W 009°09'4 7.5
2017-Sep-10 02:00N 38°11' W 009°08'4 7.5
2017-Sep-10 01:30N 38°15' W 009°08'4 7.4
2017-Sep-10 01:00N 38°19' W 009°07'4 7.5
2017-Sep-10 00:30N 38°22' W 009°07'4 7.5
2017-Sep-10 00:00N 38°26' W 009°06'0 0.9
2017-Sep-09 23:30N 38°26' W 009°07'0 0.0
2017-Sep-09 23:00N 38°26' W 009°07'0 0.0
2017-Sep-09 22:30N 38°26' W 009°07'0 0.0
2017-Sep-09 22:00N 38°26' W 009°07'1 1.1
2017-Sep-09 21:30N 38°26' W 009°06'4 7.6
2017-Sep-09 21:00N 38°22' W 009°07'3 7.0
2017-Sep-09 20:30N 38°19' W 009°08'3 6.7
2017-Sep-09 20:00N 38°15' W 009°08'3 6.8
2017-Sep-09 19:30N 38°12' W 009°08'8 0.6
2017-Sep-09 06:30N 38°04' W 009°08'0 0.9
2017-Sep-09 06:00N 38°04' W 009°08'3 6.3
2017-Sep-09 05:30N 38°02' W 009°05'3 6.4
2017-Sep-09 05:00N 38°00' W 009°01'3 6.6
2017-Sep-09 04:30N 37°59' W 008°58'3 6.6
2017-Sep-09 04:00N 37°57' W 008°55'2 3.8
2017-Sep-09 03:30N 37°57' W 008°52'0 0.0
2017-Sep-09 03:00N 37°57' W 008°52'0 0.0
2017-Sep-09 02:30N 37°57' W 008°52'0 0.0
2017-Sep-09 02:00N 37°57' W 008°52'0 0.0
2017-Sep-09 01:30N 37°57' W 008°52'0 0.0
2017-Sep-09 01:00N 37°57' W 008°52'0 0.0
2017-Sep-09 00:30N 37°57' W 008°52'0 0.0
2017-Sep-09 00:00N 37°57' W 008°52'0 0.0
2017-Sep-08 23:30N 37°57' W 008°52'0 0.0
2017-Sep-08 23:00N 37°57' W 008°52'0 0.0
2017-Sep-08 22:30N 37°57' W 008°52'0 0.0
2017-Sep-08 22:00N 37°57' W 008°52'0 0.0
2017-Sep-08 21:30N 37°57' W 008°52'0 0.0
2017-Sep-08 21:00N 37°57' W 008°52'0 0.0
2017-Sep-08 20:30N 37°57' W 008°52'3 6.2
2017-Sep-08 20:00N 37°55' W 008°55'4 7.4
2017-Sep-08 19:30N 37°53' W 008°59'4 6.9
2017-Sep-08 19:00N 37°51' W 009°03'3 6.6
2017-Sep-08 18:30N 37°49' W 009°06'14 2.7
2017-Sep-08 13:26N 37°37' W 009°14'1 2.1
2017-Sep-08 13:00N 37°38' W 009°13'1 2.7
2017-Sep-08 12:30N 37°39' W 009°14'1 2.7
2017-Sep-08 12:00N 37°40' W 009°14'2 4.0
2017-Sep-08 11:28N 37°42' W 009°14'0 0.5
2017-Sep-08 11:00N 37°42' W 009°15'0 0.3
2017-Sep-08 10:30N 37°43' W 009°15'1 2.7
2017-Sep-08 10:00N 37°44' W 009°15'42 5.1
2017-Sep-08 01:50N 38°25' W 009°07'1 3.9
2017-Sep-08 01:30N 38°26' W 009°07'0 0.0
2017-Sep-08 01:00N 38°26' W 009°07'0 0.0
2017-Sep-08 00:30N 38°26' W 009°07'0 0.0
2017-Sep-08 00:00N 38°26' W 009°07'0 0.0
2017-Sep-07 23:30N 38°26' W 009°07'0 0.0
2017-Sep-07 23:00N 38°26' W 009°07'0 0.0
2017-Sep-07 22:30N 38°26' W 009°07'0 0.0
2017-Sep-07 22:00N 38°26' W 009°07'0 0.0
2017-Sep-07 21:30N 38°26' W 009°07'0 0.0
2017-Sep-07 21:00N 38°26' W 009°07'0 0.0
2017-Sep-07 20:30N 38°26' W 009°07'0 0.0
2017-Sep-07 20:00N 38°26' W 009°07'0 0.1
2017-Sep-07 19:30N 38°26' W 009°07'0 0.0
2017-Sep-07 19:00N 38°26' W 009°07'3 6.1
2017-Sep-07 18:30N 38°23' W 009°07'4 7.6
2017-Sep-07 18:00N 38°20' W 009°07'4 7.4
2017-Sep-07 17:30N 38°16' W 009°07'4 7.5
2017-Sep-07 17:00N 38°12' W 009°08'4 7.5
2017-Sep-07 16:30N 38°08' W 009°08'4 7.4
2017-Sep-07 16:00N 38°05' W 009°09'4 7.3
2017-Sep-07 15:30N 38°02' W 009°11'24 0.6
2017-Sep-06 02:18N 38°25' W 009°07'1 4.8
2017-Sep-06 02:00N 38°26' W 009°07'0 0.0
2017-Sep-06 01:30N 38°26' W 009°07'0 0.0
2017-Sep-06 01:00N 38°26' W 009°07'0 0.0
2017-Sep-06 00:30N 38°26' W 009°07'0 0.0
2017-Sep-06 00:00N 38°26' W 009°07'0 0.0
2017-Sep-05 23:30N 38°26' W 009°07'0 0.0
2017-Sep-05 23:00N 38°26' W 009°07'0 0.0
2017-Sep-05 22:29N 38°26' W 009°07'0 0.0
2017-Sep-05 21:59N 38°26' W 009°07'0 0.0
2017-Sep-05 21:30N 38°26' W 009°07'0 0.0
2017-Sep-05 21:00N 38°26' W 009°07'0 0.0
2017-Sep-05 20:30N 38°26' W 009°07'0 0.0
2017-Sep-05 20:00N 38°26' W 009°07'0 0.2
2017-Sep-05 19:30N 38°26' W 009°07'0 0.0
2017-Sep-05 19:00N 38°26' W 009°07'0 0.0
2017-Sep-05 18:30N 38°26' W 009°07'1 1.2
2017-Sep-05 18:00N 38°26' W 009°06'4 7.5
2017-Sep-05 17:30N 38°22' W 009°07'4 7.2
2017-Sep-05 17:00N 38°19' W 009°08'4 7.2
2017-Sep-05 16:30N 38°15' W 009°08'4 7.3
2017-Sep-05 16:00N 38°11' W 009°08'4 7.2
2017-Sep-05 15:30N 38°08' W 009°09'4 7.0
2017-Sep-05 15:00N 38°04' W 009°10'4 7.4
2017-Sep-05 14:30N 38°01' W 009°11'4 7.5
2017-Sep-05 14:00N 37°57' W 009°13'24 1.3
2017-Sep-04 20:15N 37°34' W 009°19'1 2.7
2017-Sep-04 19:59N 37°34' W 009°19'2 2.6
2017-Sep-04 19:15N 37°32' W 009°19'1 2.6
2017-Sep-04 19:00N 37°31' W 009°18'  

Dump ship's entire track history